sensor_id;sensor_type;location;lat;lon;timestamp;pressure;altitude;pressure_sealevel;temperature;humidity
10348;BME280;5220;43.192;23.284;2023-08-07T00:00:25;96287.41;;;19.54;100.00
10348;BME280;5220;43.192;23.284;2023-08-07T00:02:51;96295.94;;;19.27;100.00
10348;BME280;5220;43.192;23.284;2023-08-07T00:05:19;96291.97;;;19.46;100.00
10348;BME280;5220;43.192;23.284;2023-08-07T00:07:46;96297.59;;;19.57;100.00
10348;BME280;5220;43.192;23.284;2023-08-07T00:10:13;96295.59;;;19.45;100.00
10348;BME280;5220;43.192;23.284;2023-08-07T00:12:40;96301.94;;;19.36;100.00
10348;BME280;5220;43.192;23.284;2023-08-07T00:15:07;96305.41;;;19.51;100.00
10348;BME280;5220;43.192;23.284;2023-08-07T00:17:34;96312.56;;;19.27;100.00
10348;BME280;5220;43.192;23.284;2023-08-07T00:20:01;96293.63;;;18.57;100.00
10348;BME280;5220;43.192;23.284;2023-08-07T00:22:29;96299.25;;;18.54;100.00
10348;BME280;5220;43.192;23.284;2023-08-07T00:24:55;96302.81;;;18.99;100.00
10348;BME280;5220;43.192;23.284;2023-08-07T00:27:22;96299.88;;;18.94;100.00
10348;BME280;5220;43.192;23.284;2023-08-07T00:29:49;96308.13;;;18.76;100.00
10348;BME280;5220;43.192;23.284;2023-08-07T00:32:15;96312.28;;;19.08;100.00
10348;BME280;5220;43.192;23.284;2023-08-07T00:34:42;96319.38;;;19.22;100.00
10348;BME280;5220;43.192;23.284;2023-08-07T00:37:09;96327.66;;;19.33;100.00
10348;BME280;5220;43.192;23.284;2023-08-07T00:39:37;96335.16;;;19.45;100.00
10348;BME280;5220;43.192;23.284;2023-08-07T00:42:04;96334.81;;;19.48;100.00
10348;BME280;5220;43.192;23.284;2023-08-07T00:44:31;96340.47;;;19.37;100.00
10348;BME280;5220;43.192;23.284;2023-08-07T00:46:58;96329.06;;;19.44;100.00
10348;BME280;5220;43.192;23.284;2023-08-07T00:49:26;96348.75;;;19.33;100.00
10348;BME280;5220;43.192;23.284;2023-08-07T00:51:53;96344.31;;;18.59;100.00
10348;BME280;5220;43.192;23.284;2023-08-07T00:54:20;96348.25;;;19.01;100.00
10348;BME280;5220;43.192;23.284;2023-08-07T00:56:49;96354.59;;;19.14;100.00
10348;BME280;5220;43.192;23.284;2023-08-07T00:59:16;96347.94;;;19.18;100.00
10348;BME280;5220;43.192;23.284;2023-08-07T01:01:43;96347.75;;;19.20;100.00
10348;BME280;5220;43.192;23.284;2023-08-07T01:04:09;96354.69;;;19.21;100.00
10348;BME280;5220;43.192;23.284;2023-08-07T01:06:36;96357.22;;;18.77;100.00
10348;BME280;5220;43.192;23.284;2023-08-07T01:09:03;96362.75;;;19.05;100.00
10348;BME280;5220;43.192;23.284;2023-08-07T01:11:34;96367.47;;;19.09;100.00
10348;BME280;5220;43.192;23.284;2023-08-07T01:14:10;96371.16;;;19.00;100.00
10348;BME280;5220;43.192;23.284;2023-08-07T01:16:43;96364.00;;;19.09;100.00
10348;BME280;5220;43.192;23.284;2023-08-07T01:19:19;96369.94;;;19.11;100.00
10348;BME280;5220;43.192;23.284;2023-08-07T01:21:54;96368.91;;;19.12;100.00
10348;BME280;5220;43.192;23.284;2023-08-07T01:24:30;96364.09;;;19.15;100.00
10348;BME280;5220;43.192;23.284;2023-08-07T01:26:57;96364.25;;;18.99;100.00
10348;BME280;5220;43.192;23.284;2023-08-07T01:29:31;96368.88;;;18.97;100.00
10348;BME280;5220;43.192;23.284;2023-08-07T01:32:02;96372.97;;;19.00;100.00
10348;BME280;5220;43.192;23.284;2023-08-07T01:34:34;96371.03;;;18.79;100.00
10348;BME280;5220;43.192;23.284;2023-08-07T01:37:04;96372.09;;;18.39;100.00
10348;BME280;5220;43.192;23.284;2023-08-07T01:39:33;96379.66;;;18.42;100.00
10348;BME280;5220;43.192;23.284;2023-08-07T01:42:03;96379.00;;;18.40;100.00
10348;BME280;5220;43.192;23.284;2023-08-07T01:44:30;96373.22;;;18.45;100.00
10348;BME280;5220;43.192;23.284;2023-08-07T01:46:57;96371.84;;;18.57;100.00
10348;BME280;5220;43.192;23.284;2023-08-07T01:49:23;96381.91;;;18.53;100.00
10348;BME280;5220;43.192;23.284;2023-08-07T01:51:50;96386.53;;;18.43;100.00
10348;BME280;5220;43.192;23.284;2023-08-07T01:54:18;96392.75;;;18.58;100.00
10348;BME280;5220;43.192;23.284;2023-08-07T01:56:45;96402.34;;;18.43;100.00
10348;BME280;5220;43.192;23.284;2023-08-07T01:59:11;96405.25;;;18.25;100.00
10348;BME280;5220;43.192;23.284;2023-08-07T02:01:38;96403.84;;;18.46;100.00
10348;BME280;5220;43.192;23.284;2023-08-07T02:04:05;96411.50;;;18.24;100.00
10348;BME280;5220;43.192;23.284;2023-08-07T02:06:32;96411.34;;;18.26;100.00
10348;BME280;5220;43.192;23.284;2023-08-07T02:08:59;96408.50;;;18.36;100.00
10348;BME280;5220;43.192;23.284;2023-08-07T02:11:27;96418.00;;;18.45;100.00
10348;BME280;5220;43.192;23.284;2023-08-07T02:13:53;96423.22;;;18.53;100.00
10348;BME280;5220;43.192;23.284;2023-08-07T02:16:20;96420.47;;;18.46;100.00
10348;BME280;5220;43.192;23.284;2023-08-07T02:18:46;96420.78;;;18.51;100.00
10348;BME280;5220;43.192;23.284;2023-08-07T02:21:13;96430.00;;;18.55;100.00
10348;BME280;5220;43.192;23.284;2023-08-07T02:23:40;96438.72;;;18.48;100.00
10348;BME280;5220;43.192;23.284;2023-08-07T02:26:06;96439.38;;;18.50;100.00
10348;BME280;5220;43.192;23.284;2023-08-07T02:28:34;96444.16;;;18.46;100.00
10348;BME280;5220;43.192;23.284;2023-08-07T02:31:01;96436.28;;;18.46;100.00
10348;BME280;5220;43.192;23.284;2023-08-07T02:33:28;96436.13;;;18.40;100.00
10348;BME280;5220;43.192;23.284;2023-08-07T02:35:55;96444.25;;;18.30;100.00
10348;BME280;5220;43.192;23.284;2023-08-07T02:38:22;96434.88;;;18.27;100.00
10348;BME280;5220;43.192;23.284;2023-08-07T02:40:48;96439.81;;;18.31;100.00
10348;BME280;5220;43.192;23.284;2023-08-07T02:43:15;96445.44;;;18.19;100.00
10348;BME280;5220;43.192;23.284;2023-08-07T02:45:44;96438.13;;;17.99;100.00
10348;BME280;5220;43.192;23.284;2023-08-07T02:48:11;96446.75;;;18.15;100.00
10348;BME280;5220;43.192;23.284;2023-08-07T02:50:38;96448.13;;;18.11;100.00
10348;BME280;5220;43.192;23.284;2023-08-07T02:53:04;96450.69;;;18.19;100.00
10348;BME280;5220;43.192;23.284;2023-08-07T02:55:31;96453.22;;;18.05;100.00
10348;BME280;5220;43.192;23.284;2023-08-07T02:57:58;96461.28;;;18.11;100.00
10348;BME280;5220;43.192;23.284;2023-08-07T03:00:24;96470.66;;;18.06;100.00
10348;BME280;5220;43.192;23.284;2023-08-07T03:02:52;96472.75;;;18.18;100.00
10348;BME280;5220;43.192;23.284;2023-08-07T03:05:19;96452.97;;;18.31;100.00
10348;BME280;5220;43.192;23.284;2023-08-07T03:07:46;96466.13;;;18.31;100.00
10348;BME280;5220;43.192;23.284;2023-08-07T03:10:13;96452.78;;;18.32;100.00
10348;BME280;5220;43.192;23.284;2023-08-07T03:12:39;96458.09;;;18.24;100.00
10348;BME280;5220;43.192;23.284;2023-08-07T03:15:07;96464.00;;;18.26;100.00
10348;BME280;5220;43.192;23.284;2023-08-07T03:17:34;96470.56;;;18.30;100.00
10348;BME280;5220;43.192;23.284;2023-08-07T03:20:02;96465.66;;;18.19;100.00
10348;BME280;5220;43.192;23.284;2023-08-07T03:22:30;96473.72;;;18.25;100.00
10348;BME280;5220;43.192;23.284;2023-08-07T03:24:56;96471.59;;;18.21;100.00
10348;BME280;5220;43.192;23.284;2023-08-07T03:27:23;96481.31;;;18.20;100.00
10348;BME280;5220;43.192;23.284;2023-08-07T03:29:50;96486.72;;;18.19;100.00
10348;BME280;5220;43.192;23.284;2023-08-07T03:32:17;96495.13;;;18.22;100.00
10348;BME280;5220;43.192;23.284;2023-08-07T03:34:43;96496.28;;;18.20;100.00
10348;BME280;5220;43.192;23.284;2023-08-07T03:37:11;96493.47;;;18.21;100.00
10348;BME280;5220;43.192;23.284;2023-08-07T03:39:38;96492.69;;;18.13;100.00
10348;BME280;5220;43.192;23.284;2023-08-07T03:42:05;96502.38;;;18.12;100.00
10348;BME280;5220;43.192;23.284;2023-08-07T03:44:32;96499.28;;;18.09;100.00
10348;BME280;5220;43.192;23.284;2023-08-07T03:46:59;96504.34;;;18.18;100.00
10348;BME280;5220;43.192;23.284;2023-08-07T03:49:26;96506.00;;;18.19;100.00
10348;BME280;5220;43.192;23.284;2023-08-07T03:51:53;96497.59;;;18.16;100.00
10348;BME280;5220;43.192;23.284;2023-08-07T03:54:21;96494.03;;;18.09;100.00
10348;BME280;5220;43.192;23.284;2023-08-07T03:56:47;96504.88;;;18.14;100.00
10348;BME280;5220;43.192;23.284;2023-08-07T03:59:16;96499.75;;;18.12;100.00
10348;BME280;5220;43.192;23.284;2023-08-07T04:01:43;96499.59;;;18.14;100.00
10348;BME280;5220;43.192;23.284;2023-08-07T04:04:09;96500.78;;;18.03;100.00
10348;BME280;5220;43.192;23.284;2023-08-07T04:06:36;96508.69;;;17.95;100.00
10348;BME280;5220;43.192;23.284;2023-08-07T04:09:03;96517.38;;;18.04;100.00
10348;BME280;5220;43.192;23.284;2023-08-07T04:11:31;96517.38;;;18.12;100.00
10348;BME280;5220;43.192;23.284;2023-08-07T04:13:58;96519.19;;;18.11;100.00
10348;BME280;5220;43.192;23.284;2023-08-07T04:16:25;96519.03;;;18.05;100.00
10348;BME280;5220;43.192;23.284;2023-08-07T04:18:52;96511.28;;;18.11;100.00
10348;BME280;5220;43.192;23.284;2023-08-07T04:21:18;96516.53;;;18.19;100.00
10348;BME280;5220;43.192;23.284;2023-08-07T04:23:45;96513.06;;;18.19;100.00
10348;BME280;5220;43.192;23.284;2023-08-07T04:26:12;96522.91;;;18.25;100.00
10348;BME280;5220;43.192;23.284;2023-08-07T04:28:41;96528.03;;;18.18;100.00
10348;BME280;5220;43.192;23.284;2023-08-07T04:31:07;96524.41;;;18.27;100.00
10348;BME280;5220;43.192;23.284;2023-08-07T04:33:34;96526.53;;;18.32;100.00
10348;BME280;5220;43.192;23.284;2023-08-07T04:36:01;96525.34;;;18.35;100.00
10348;BME280;5220;43.192;23.284;2023-08-07T04:38:28;96523.38;;;18.37;100.00
10348;BME280;5220;43.192;23.284;2023-08-07T04:40:55;96528.31;;;18.32;100.00
10348;BME280;5220;43.192;23.284;2023-08-07T04:43:21;96526.03;;;18.37;100.00
10348;BME280;5220;43.192;23.284;2023-08-07T04:45:49;96520.06;;;18.43;100.00
10348;BME280;5220;43.192;23.284;2023-08-07T04:48:16;96521.19;;;18.48;100.00
10348;BME280;5220;43.192;23.284;2023-08-07T04:50:46;96522.97;;;18.64;100.00
10348;BME280;5220;43.192;23.284;2023-08-07T04:53:12;96519.09;;;18.74;100.00
10348;BME280;5220;43.192;23.284;2023-08-07T04:55:39;96519.72;;;18.85;100.00
10348;BME280;5220;43.192;23.284;2023-08-07T04:58:06;96519.47;;;19.02;100.00
10348;BME280;5220;43.192;23.284;2023-08-07T05:00:33;96511.41;;;19.18;100.00
10348;BME280;5220;43.192;23.284;2023-08-07T05:03:01;96512.97;;;19.36;100.00
10348;BME280;5220;43.192;23.284;2023-08-07T05:05:28;96517.66;;;19.48;100.00
10348;BME280;5220;43.192;23.284;2023-08-07T05:07:55;96511.44;;;19.64;100.00
10348;BME280;5220;43.192;23.284;2023-08-07T05:10:22;96520.81;;;19.81;100.00
10348;BME280;5220;43.192;23.284;2023-08-07T05:12:48;96519.94;;;19.89;100.00
10348;BME280;5220;43.192;23.284;2023-08-07T05:15:20;96514.50;;;20.05;100.00
10348;BME280;5220;43.192;23.284;2023-08-07T05:17:47;96518.22;;;20.10;100.00
10348;BME280;5220;43.192;23.284;2023-08-07T05:20:15;96514.06;;;20.30;100.00
10348;BME280;5220;43.192;23.284;2023-08-07T05:22:41;96522.44;;;20.49;100.00
10348;BME280;5220;43.192;23.284;2023-08-07T05:25:09;96516.94;;;20.79;100.00
10348;BME280;5220;43.192;23.284;2023-08-07T05:27:37;96519.97;;;21.12;100.00
10348;BME280;5220;43.192;23.284;2023-08-07T05:30:05;96515.78;;;21.45;100.00
10348;BME280;5220;43.192;23.284;2023-08-07T05:32:32;96514.50;;;21.84;100.00
10348;BME280;5220;43.192;23.284;2023-08-07T05:34:59;96524.16;;;22.19;100.00
10348;BME280;5220;43.192;23.284;2023-08-07T05:37:27;96536.63;;;22.60;100.00
10348;BME280;5220;43.192;23.284;2023-08-07T05:39:55;96534.56;;;23.02;100.00
10348;BME280;5220;43.192;23.284;2023-08-07T05:42:21;96531.78;;;23.37;100.00
10348;BME280;5220;43.192;23.284;2023-08-07T05:44:48;96537.78;;;23.59;100.00
10348;BME280;5220;43.192;23.284;2023-08-07T05:47:15;96543.91;;;23.79;100.00
10348;BME280;5220;43.192;23.284;2023-08-07T05:49:42;96539.22;;;23.74;100.00
10348;BME280;5220;43.192;23.284;2023-08-07T05:52:09;96543.72;;;23.80;100.00
10348;BME280;5220;43.192;23.284;2023-08-07T05:54:37;96551.66;;;23.67;100.00
10348;BME280;5220;43.192;23.284;2023-08-07T05:57:04;96543.91;;;23.66;100.00
10348;BME280;5220;43.192;23.284;2023-08-07T05:59:30;96543.28;;;23.64;100.00
10348;BME280;5220;43.192;23.284;2023-08-07T06:01:59;96546.56;;;23.59;100.00
10348;BME280;5220;43.192;23.284;2023-08-07T06:04:26;96550.03;;;23.60;100.00
10348;BME280;5220;43.192;23.284;2023-08-07T06:06:53;96557.59;;;23.56;100.00
10348;BME280;5220;43.192;23.284;2023-08-07T06:09:20;96562.91;;;23.56;100.00
10348;BME280;5220;43.192;23.284;2023-08-07T06:11:48;96562.91;;;23.56;100.00
10348;BME280;5220;43.192;23.284;2023-08-07T06:14:15;96561.09;;;23.63;100.00
10348;BME280;5220;43.192;23.284;2023-08-07T06:16:41;96561.69;;;23.65;100.00
10348;BME280;5220;43.192;23.284;2023-08-07T06:19:08;96562.94;;;23.69;100.00
10348;BME280;5220;43.192;23.284;2023-08-07T06:21:35;96564.56;;;23.77;100.00
10348;BME280;5220;43.192;23.284;2023-08-07T06:24:02;96568.44;;;23.68;94.65
10348;BME280;5220;43.192;23.284;2023-08-07T06:26:28;96568.44;;;23.81;84.19
10348;BME280;5220;43.192;23.284;2023-08-07T06:28:56;96563.56;;;23.91;95.33
10348;BME280;5220;43.192;23.284;2023-08-07T06:31:23;96563.97;;;23.88;80.67
10348;BME280;5220;43.192;23.284;2023-08-07T06:33:50;96564.56;;;23.83;73.16
10348;BME280;5220;43.192;23.284;2023-08-07T06:36:16;96572.72;;;23.69;80.61
10348;BME280;5220;43.192;23.284;2023-08-07T06:38:43;96571.28;;;23.86;82.30
10348;BME280;5220;43.192;23.284;2023-08-07T06:41:10;96577.63;;;23.98;88.27
10348;BME280;5220;43.192;23.284;2023-08-07T06:43:36;96579.88;;;24.01;78.75
10348;BME280;5220;43.192;23.284;2023-08-07T06:46:04;96579.09;;;23.94;76.28
10348;BME280;5220;43.192;23.284;2023-08-07T06:48:32;96574.97;;;23.98;70.84
10348;BME280;5220;43.192;23.284;2023-08-07T06:50:58;96572.94;;;24.00;68.25
10348;BME280;5220;43.192;23.284;2023-08-07T06:53:25;96578.84;;;23.82;74.58
10348;BME280;5220;43.192;23.284;2023-08-07T06:55:52;96577.00;;;23.57;77.13
10348;BME280;5220;43.192;23.284;2023-08-07T06:58:18;96587.03;;;23.81;75.84
10348;BME280;5220;43.192;23.284;2023-08-07T07:00:45;96578.88;;;23.95;78.77
10348;BME280;5220;43.192;23.284;2023-08-07T07:03:14;96579.31;;;24.12;86.02
10348;BME280;5220;43.192;23.284;2023-08-07T07:05:41;96593.00;;;24.22;83.68
10348;BME280;5220;43.192;23.284;2023-08-07T07:08:09;96587.66;;;24.29;82.08
10348;BME280;5220;43.192;23.284;2023-08-07T07:10:35;96590.13;;;24.24;69.76
10348;BME280;5220;43.192;23.284;2023-08-07T07:13:02;96593.81;;;24.29;66.44
10348;BME280;5220;43.192;23.284;2023-08-07T07:15:29;96593.19;;;24.27;65.86
10348;BME280;5220;43.192;23.284;2023-08-07T07:17:55;96592.16;;;24.35;65.93
10348;BME280;5220;43.192;23.284;2023-08-07T07:20:23;96590.13;;;24.24;64.31
10348;BME280;5220;43.192;23.284;2023-08-07T07:22:52;96594.03;;;24.28;69.31
10348;BME280;5220;43.192;23.284;2023-08-07T07:25:18;96589.31;;;23.97;68.77
10348;BME280;5220;43.192;23.284;2023-08-07T07:27:45;96598.91;;;23.78;67.39
10348;BME280;5220;43.192;23.284;2023-08-07T07:30:12;96585.00;;;23.96;68.94
10348;BME280;5220;43.192;23.284;2023-08-07T07:32:39;96586.25;;;24.20;71.82
10348;BME280;5220;43.192;23.284;2023-08-07T07:35:06;96591.13;;;24.29;67.78
10348;BME280;5220;43.192;23.284;2023-08-07T07:37:34;96583.75;;;24.44;67.63
10348;BME280;5220;43.192;23.284;2023-08-07T07:40:01;96584.97;;;24.48;63.96
10348;BME280;5220;43.192;23.284;2023-08-07T07:42:28;96576.00;;;24.49;66.41
10348;BME280;5220;43.192;23.284;2023-08-07T07:44:54;96583.97;;;24.49;72.54
10348;BME280;5220;43.192;23.284;2023-08-07T07:47:21;96587.22;;;24.45;65.19
10348;BME280;5220;43.192;23.284;2023-08-07T07:49:48;96586.38;;;24.64;66.10
10348;BME280;5220;43.192;23.284;2023-08-07T07:52:15;96577.56;;;24.77;67.07
10348;BME280;5220;43.192;23.284;2023-08-07T07:54:43;96585.94;;;24.74;66.08
10348;BME280;5220;43.192;23.284;2023-08-07T07:57:10;96579.63;;;24.81;64.88
10348;BME280;5220;43.192;23.284;2023-08-07T07:59:36;96575.72;;;24.84;69.31
10348;BME280;5220;43.192;23.284;2023-08-07T08:02:03;96577.97;;;24.87;69.08
10348;BME280;5220;43.192;23.284;2023-08-07T08:04:30;96577.56;;;24.77;81.54
10348;BME280;5220;43.192;23.284;2023-08-07T08:06:57;96581.81;;;24.91;78.28
10348;BME280;5220;43.192;23.284;2023-08-07T08:09:24;96580.34;;;25.08;80.07
10348;BME280;5220;43.192;23.284;2023-08-07T08:11:53;96579.91;;;25.11;75.77
10348;BME280;5220;43.192;23.284;2023-08-07T08:14:19;96580.31;;;25.14;66.77
10348;BME280;5220;43.192;23.284;2023-08-07T08:16:46;96587.31;;;25.09;67.48
10348;BME280;5220;43.192;23.284;2023-08-07T08:19:13;96588.06;;;24.26;81.73
10348;BME280;5220;43.192;23.284;2023-08-07T08:21:41;96587.59;;;24.68;78.57
10348;BME280;5220;43.192;23.284;2023-08-07T08:24:08;96593.94;;;24.87;76.90
10348;BME280;5220;43.192;23.284;2023-08-07T08:26:35;96586.56;;;24.69;72.85
10348;BME280;5220;43.192;23.284;2023-08-07T08:29:03;96583.72;;;24.84;78.29
10348;BME280;5220;43.192;23.284;2023-08-07T08:31:30;96577.97;;;24.87;72.93
10348;BME280;5220;43.192;23.284;2023-08-07T08:33:57;96578.97;;;24.86;81.11
10348;BME280;5220;43.192;23.284;2023-08-07T08:36:24;96575.06;;;24.95;75.14
10348;BME280;5220;43.192;23.284;2023-08-07T08:38:50;96578.66;;;25.13;72.41
10348;BME280;5220;43.192;23.284;2023-08-07T08:41:18;96582.53;;;25.24;72.99
10348;BME280;5220;43.192;23.284;2023-08-07T08:43:46;96579.03;;;25.24;71.22
10348;BME280;5220;43.192;23.284;2023-08-07T08:46:15;96578.56;;;25.33;71.11
10348;BME280;5220;43.192;23.284;2023-08-07T08:48:50;96574.78;;;25.47;70.17
10348;BME280;5220;43.192;23.284;2023-08-07T08:51:17;96567.63;;;25.54;68.27
10348;BME280;5220;43.192;23.284;2023-08-07T08:53:45;96567.19;;;25.57;64.65
10348;BME280;5220;43.192;23.284;2023-08-07T08:56:12;96576.44;;;25.55;65.93
10348;BME280;5220;43.192;23.284;2023-08-07T08:58:39;96566.63;;;25.49;69.64
10348;BME280;5220;43.192;23.284;2023-08-07T09:01:06;96567.97;;;25.64;72.50
10348;BME280;5220;43.192;23.284;2023-08-07T09:03:36;96567.63;;;25.48;71.43
10348;BME280;5220;43.192;23.284;2023-08-07T09:06:02;96579.72;;;25.50;73.83
10348;BME280;5220;43.192;23.284;2023-08-07T09:08:32;96573.41;;;25.38;67.32
10348;BME280;5220;43.192;23.284;2023-08-07T09:11:01;96563.53;;;25.45;70.52
10348;BME280;5220;43.192;23.284;2023-08-07T09:13:29;96555.97;;;25.42;68.66
10348;BME280;5220;43.192;23.284;2023-08-07T09:16:00;96561.47;;;25.47;64.75
10348;BME280;5220;43.192;23.284;2023-08-07T09:18:28;96560.75;;;25.34;65.32
10348;BME280;5220;43.192;23.284;2023-08-07T09:20:56;96551.16;;;25.26;69.08
10348;BME280;5220;43.192;23.284;2023-08-07T09:23:24;96554.00;;;24.93;65.95
10348;BME280;5220;43.192;23.284;2023-08-07T09:25:59;96558.25;;;25.01;68.88
10348;BME280;5220;43.192;23.284;2023-08-07T09:28:26;96545.72;;;25.08;63.84
10348;BME280;5220;43.192;23.284;2023-08-07T09:30:52;96546.41;;;24.97;65.17
10348;BME280;5220;43.192;23.284;2023-08-07T09:33:24;96554.94;;;25.12;69.96
10348;BME280;5220;43.192;23.284;2023-08-07T09:35:52;96557.16;;;25.15;72.22
10348;BME280;5220;43.192;23.284;2023-08-07T09:38:22;96571.81;;;25.37;74.24
10348;BME280;5220;43.192;23.284;2023-08-07T09:40:49;96561.72;;;25.46;74.41
10348;BME280;5220;43.192;23.284;2023-08-07T09:43:20;96565.97;;;25.53;75.64
10348;BME280;5220;43.192;23.284;2023-08-07T09:45:48;96563.88;;;25.62;73.51
10348;BME280;5220;43.192;23.284;2023-08-07T09:48:23;96561.78;;;25.33;73.46
10348;BME280;5220;43.192;23.284;2023-08-07T09:50:50;96556.31;;;25.21;70.56
10348;BME280;5220;43.192;23.284;2023-08-07T09:53:16;96564.91;;;25.61;69.62
10348;BME280;5220;43.192;23.284;2023-08-07T09:55:45;96557.31;;;25.64;65.38
10348;BME280;5220;43.192;23.284;2023-08-07T09:58:12;96562.25;;;25.61;71.12
10348;BME280;5220;43.192;23.284;2023-08-07T10:00:40;96564.41;;;25.77;67.34
10348;BME280;5220;43.192;23.284;2023-08-07T10:03:07;96564.66;;;25.94;70.07
10348;BME280;5220;43.192;23.284;2023-08-07T10:05:34;96561.13;;;26.00;60.49
10348;BME280;5220;43.192;23.284;2023-08-07T10:08:01;96568.94;;;25.70;67.87
10348;BME280;5220;43.192;23.284;2023-08-07T10:10:28;96572.34;;;25.52;67.64
10348;BME280;5220;43.192;23.284;2023-08-07T10:12:56;96575.63;;;25.48;70.31
10348;BME280;5220;43.192;23.284;2023-08-07T10:15:27;96574.22;;;25.77;64.76
10348;BME280;5220;43.192;23.284;2023-08-07T10:17:53;96571.25;;;25.91;66.21
10348;BME280;5220;43.192;23.284;2023-08-07T10:20:21;96562.31;;;26.04;68.67
10348;BME280;5220;43.192;23.284;2023-08-07T10:22:48;96554.31;;;26.04;68.31
10348;BME280;5220;43.192;23.284;2023-08-07T10:25:20;96549.50;;;26.19;63.80
10348;BME280;5220;43.192;23.284;2023-08-07T10:27:49;96549.97;;;26.34;68.57
10348;BME280;5220;43.192;23.284;2023-08-07T10:30:20;96545.41;;;26.41;67.02
10348;BME280;5220;43.192;23.284;2023-08-07T10:32:48;96538.44;;;26.40;64.33
10348;BME280;5220;43.192;23.284;2023-08-07T10:35:23;96548.94;;;26.35;64.10
10348;BME280;5220;43.192;23.284;2023-08-07T10:37:52;96552.94;;;26.26;61.46
10348;BME280;5220;43.192;23.284;2023-08-07T10:40:19;96555.59;;;26.01;74.24
10348;BME280;5220;43.192;23.284;2023-08-07T10:42:56;96551.41;;;26.12;72.07
10348;BME280;5220;43.192;23.284;2023-08-07T10:45:26;96555.94;;;25.55;75.21
10348;BME280;5220;43.192;23.284;2023-08-07T10:47:57;96552.63;;;25.85;70.95
10348;BME280;5220;43.192;23.284;2023-08-07T10:50:28;96554.81;;;25.94;70.25
10348;BME280;5220;43.192;23.284;2023-08-07T10:52:56;96544.34;;;26.24;67.01
10348;BME280;5220;43.192;23.284;2023-08-07T10:55:23;96554.44;;;26.40;73.82
10348;BME280;5220;43.192;23.284;2023-08-07T10:57:50;96551.03;;;26.51;72.87
10348;BME280;5220;43.192;23.284;2023-08-07T11:00:17;96542.47;;;26.67;63.11
10348;BME280;5220;43.192;23.284;2023-08-07T11:02:50;96532.75;;;26.55;61.73
10348;BME280;5220;43.192;23.284;2023-08-07T11:05:18;96541.34;;;26.57;60.38
10348;BME280;5220;43.192;23.284;2023-08-07T11:07:45;96532.47;;;26.20;67.07
10348;BME280;5220;43.192;23.284;2023-08-07T11:10:13;96532.09;;;26.16;68.45
10348;BME280;5220;43.192;23.284;2023-08-07T11:12:41;96523.16;;;26.29;65.61
10348;BME280;5220;43.192;23.284;2023-08-07T11:15:12;96517.97;;;26.34;64.16
10348;BME280;5220;43.192;23.284;2023-08-07T11:17:39;96518.13;;;26.21;66.73
10348;BME280;5220;43.192;23.284;2023-08-07T11:20:09;96518.31;;;26.19;71.65
10348;BME280;5220;43.192;23.284;2023-08-07T11:22:38;96519.28;;;26.25;69.18
10348;BME280;5220;43.192;23.284;2023-08-07T11:25:06;96513.81;;;26.20;63.08
10348;BME280;5220;43.192;23.284;2023-08-07T11:27:37;96520.78;;;26.21;63.63
10348;BME280;5220;43.192;23.284;2023-08-07T11:30:05;96527.34;;;26.43;69.52
10348;BME280;5220;43.192;23.284;2023-08-07T11:32:32;96525.75;;;26.54;69.74
10348;BME280;5220;43.192;23.284;2023-08-07T11:34:58;96518.44;;;26.67;67.71
10348;BME280;5220;43.192;23.284;2023-08-07T11:37:26;96520.09;;;26.87;65.34
10348;BME280;5220;43.192;23.284;2023-08-07T11:40:00;96519.19;;;26.93;69.24
10348;BME280;5220;43.192;23.284;2023-08-07T11:42:27;96521.53;;;27.01;58.24
10348;BME280;5220;43.192;23.284;2023-08-07T11:44:54;96515.00;;;27.15;62.13
10348;BME280;5220;43.192;23.284;2023-08-07T11:47:21;96514.75;;;27.16;59.73
10348;BME280;5220;43.192;23.284;2023-08-07T11:49:48;96520.22;;;27.21;62.40
10348;BME280;5220;43.192;23.284;2023-08-07T11:52:15;96516.25;;;27.12;59.79
10348;BME280;5220;43.192;23.284;2023-08-07T11:54:46;96519.38;;;27.09;63.83
10348;BME280;5220;43.192;23.284;2023-08-07T11:57:17;96518.69;;;27.14;66.05
10348;BME280;5220;43.192;23.284;2023-08-07T11:59:47;96519.88;;;27.18;63.74
10348;BME280;5220;43.192;23.284;2023-08-07T12:02:14;96522.22;;;27.26;62.10
10348;BME280;5220;43.192;23.284;2023-08-07T12:04:41;96519.78;;;27.24;57.65
10348;BME280;5220;43.192;23.284;2023-08-07T12:07:09;96522.34;;;27.01;63.91
10348;BME280;5220;43.192;23.284;2023-08-07T12:09:36;96520.13;;;26.98;64.95
10348;BME280;5220;43.192;23.284;2023-08-07T12:12:06;96517.22;;;27.00;63.43
10348;BME280;5220;43.192;23.284;2023-08-07T12:14:33;96510.53;;;27.09;58.94
10348;BME280;5220;43.192;23.284;2023-08-07T12:17:02;96514.19;;;27.14;58.99
10348;BME280;5220;43.192;23.284;2023-08-07T12:19:38;96503.41;;;27.21;59.51
10348;BME280;5220;43.192;23.284;2023-08-07T12:22:10;96507.38;;;27.30;61.10
10348;BME280;5220;43.192;23.284;2023-08-07T12:24:37;96508.44;;;27.41;62.02
10348;BME280;5220;43.192;23.284;2023-08-07T12:27:06;96504.13;;;27.58;62.44
10348;BME280;5220;43.192;23.284;2023-08-07T12:29:33;96507.03;;;27.68;61.67
10348;BME280;5220;43.192;23.284;2023-08-07T12:32:00;96504.72;;;27.71;57.13
10348;BME280;5220;43.192;23.284;2023-08-07T12:34:28;96517.50;;;27.69;56.44
10348;BME280;5220;43.192;23.284;2023-08-07T12:36:54;96510.41;;;27.75;58.99
10348;BME280;5220;43.192;23.284;2023-08-07T12:39:21;96508.91;;;27.79;58.95
10348;BME280;5220;43.192;23.284;2023-08-07T12:41:48;96507.16;;;27.73;54.57
10348;BME280;5220;43.192;23.284;2023-08-07T12:44:16;96510.97;;;27.54;55.71
10348;BME280;5220;43.192;23.284;2023-08-07T12:46:43;96507.72;;;27.63;56.68
10348;BME280;5220;43.192;23.284;2023-08-07T12:49:10;96512.38;;;27.68;57.98
10348;BME280;5220;43.192;23.284;2023-08-07T12:51:36;96515.16;;;27.61;58.49
10348;BME280;5220;43.192;23.284;2023-08-07T12:54:03;96520.06;;;27.64;60.41
10348;BME280;5220;43.192;23.284;2023-08-07T12:56:30;96512.44;;;27.50;59.56